EGLLLTBS

Guest
Details From EGLL - London Heathrow
To LTBS - Dalaman
Flight Number -
Tags Generated
Created
Modified
Stats Distance 1,527 nm / 2,827 km
Max Altitude 0 ft / 0 m
Waypoints 8
Social Downloads 2
Likes 0
Share VATSIM

Download

Looking for another format? Having issues loading an existing format? Contact us
Advertisement - Login to hide

Notes

Generated

Route

EGLL REMGO LOKTA IDRIG RUDAR BU DAL32 LTBS

ID Type Via Altitude Latitude Longitude Leg Dist Tot Dist Heading (true) Name
O EGLL APT - 0 ft / 0 m 51.46477˚ -0.48695˚ - 0 nm - -
REMGO FIX - 0 ft / 0 m 49.77583˚ 5.02111˚ 233 nm 233 nm 114° / 118° -
LOKTA FIX - 0 ft / 0 m 48.16667˚ 9.18278˚ 190 nm 423 nm 119° / 122° -
IDRIG FIX - 0 ft / 0 m 45.95011˚ 14.08501˚ 240 nm 664 nm 122° / 125° -
RUDAR FIX - 0 ft / 0 m 43.64861˚ 18.48917˚ 233 nm 897 nm 125° / 128° -
BU NDB - 0 ft / 0 m 41.73167˚ 21.69500˚ 182 nm 1079 nm 128° / 130° SKOPJE NDB
DAL32 FIX - 0 ft / 0 m 36.82597˚ 28.62903˚ 436 nm 1515 nm 130° / 135° -
O LTBS APT - 0 ft / 0 m 36.70016˚ 28.78809˚ 10 nm 1526 nm 135° / 135° -

Altitude Profile

Advertisement - Login to hide

Weather


0- 5 10 15 20 25 30 35+ Temperature / ° C

Clouds and Precipitation
Forecast for 2017-12-15 00:00 UTC. Updated 2 hours ago

Ground ~20,000 ft ~40,000 ft Winds

EGLL

Details ICAO EGLL (LHR)
Name London Heathrow
Region United Kingdom
Timezone Europe/London (UTC+0.0)
Stats Elevation 83 ft / 25 m (AMSL)
Location 51.471218° -0.460978°
Runways 2
Magnetic Variation 0.560° W

METAR

EGLL 150050Z AUTO 26008KT 9999 NCD 02/01 Q0990 NOSIG

Decode

TAF

TAF EGLL 142304Z 1500/1606 25008KT 9999 SCT025 BECMG 1503/1506 BKN010 TEMPO 1503/1512 7000 SHRA BKN007 BECMG 1506/1509 33012KT BECMG 1509/1512 BKN015 PROB40 TEMPO 1512/1518 34015G25KT 8000 -SHRA BKN012 BECMG 1518/1521 CAVOK

Decode

Departure Runways

ID Width Length Bearing (true) Bearing (mag) Surface Threshold Offset Overrun Length
09L 164 ft / 50 m 12,811 ft / 3,905 m 89.64° 90.20° Asphalt 1,004 ft / 306 m 0 ft / 0 m
09R 164 ft / 50 m 12,019 ft / 3,663 m 89.67° 90.23° Asphalt 1,007 ft / 307 m 0 ft / 0 m
27L 164 ft / 50 m 12,019 ft / 3,663 m 269.71° 270.27° Asphalt 0 ft / 0 m 69 ft / 21 m
27R 164 ft / 50 m 12,811 ft / 3,905 m 269.69° 270.25° Asphalt 0 ft / 0 m 69 ft / 21 m

LTBS

Details ICAO LTBS (DLM)
Name DALAMAN
Region Turkey
Timezone Europe/Istanbul (UTC+3.0)
Stats Elevation 20 ft / 6 m (AMSL)
Location 36.713189° 28.792513°
Runways 1
Magnetic Variation 4.880° E

METAR

LTBS 150050Z 05006KT CAVOK 09/08 Q1018 NOSIG

Decode

TAF

Not found

Destination Runways

ID Width Length Bearing (true) Bearing (mag) Surface Threshold Offset Overrun Length
01 148 ft / 45 m 9,851 ft / 3,003 m 15.24° 10.36° Concrete 0 ft / 0 m 197 ft / 60 m
19 148 ft / 45 m 9,851 ft / 3,003 m 195.25° 190.37° Concrete 0 ft / 0 m 197 ft / 60 m

Popular Alternatives